createdAt,value
2023-02-08T00:00:06.740Z,41.37
2023-02-08T00:02:08.388Z,41.14
2023-02-08T00:04:09.943Z,41.36
2023-02-08T00:06:12.160Z,40.92
2023-02-08T00:08:13.689Z,40.78
2023-02-08T00:10:15.244Z,40.49
2023-02-08T00:12:18.083Z,40.03
2023-02-08T00:14:20.960Z,40.37
2023-02-08T00:16:22.608Z,40.63
2023-02-08T00:18:24.183Z,40.48
2023-02-08T00:20:25.882Z,39.93
2023-02-08T00:22:27.387Z,39.48
2023-02-08T00:24:30.007Z,40.14
2023-02-08T00:26:31.491Z,40.23
2023-02-08T00:28:33.212Z,40.43
2023-02-08T00:30:42.143Z,40.64
2023-02-08T00:32:43.825Z,41.04
2023-02-08T00:34:45.435Z,41.55
2023-02-08T00:36:47.004Z,41.73
2023-02-08T00:38:48.574Z,41.57
2023-02-08T00:40:50.068Z,41.75
2023-02-08T00:42:51.603Z,41.67
2023-02-08T00:44:53.072Z,41.75
2023-02-08T00:47:03.577Z,42.22
2023-02-08T00:49:05.128Z,41.63
2023-02-08T00:51:08.267Z,41.84
2023-02-08T00:53:09.794Z,40.57
2023-02-08T00:55:11.365Z,40.20
2023-02-08T00:57:13.171Z,40.07
2023-02-08T00:59:15.268Z,40.17
2023-02-08T01:01:16.932Z,40.70
2023-02-08T01:03:20.640Z,41.49
2023-02-08T01:05:22.331Z,41.60
2023-02-08T01:07:23.932Z,41.64
2023-02-08T01:09:25.610Z,41.85
2023-02-08T01:11:27.251Z,41.75
2023-02-08T01:13:28.704Z,41.30
2023-02-08T01:15:30.397Z,41.75
2023-02-08T01:17:31.912Z,41.41
2023-02-08T01:19:35.208Z,42.07
2023-02-08T01:21:38.767Z,41.57
2023-02-08T01:23:40.819Z,41.96
2023-02-08T01:25:42.351Z,41.88
2023-02-08T01:27:44.118Z,41.94
2023-02-08T01:29:45.687Z,41.93
2023-02-08T01:31:47.312Z,41.86
2023-02-08T01:33:49.244Z,41.78
2023-02-08T01:35:52.855Z,41.83
2023-02-08T01:37:54.351Z,41.85
2023-02-08T01:39:55.924Z,41.90
2023-02-08T01:41:57.503Z,41.66
2023-02-08T01:44:15.624Z,42.33
2023-02-08T01:46:17.531Z,42.01
2023-02-08T01:48:23.957Z,41.92
2023-02-08T01:50:31.294Z,42.51
2023-02-08T01:52:34.495Z,42.29
2023-02-08T01:54:40.410Z,42.49
2023-02-08T01:56:44.722Z,42.47
2023-02-08T01:58:52.076Z,42.28
2023-02-08T02:00:54.605Z,42.79
2023-02-08T02:05:17.467Z,42.06
2023-02-08T02:07:21.681Z,41.95
2023-02-08T02:09:28.414Z,42.52
2023-02-08T02:11:29.895Z,42.08
2023-02-08T02:13:32.529Z,42.64
2023-02-08T02:15:34.622Z,41.93
2023-02-08T02:17:38.371Z,41.95
2023-02-08T02:19:50.227Z,42.42
2023-02-08T02:22:03.686Z,41.40
2023-02-08T02:25:00.897Z,41.04
2023-02-08T02:27:20.624Z,41.04
2023-02-08T02:29:58.740Z,41.31
2023-02-08T02:32:22.723Z,41.59
2023-02-08T02:34:31.901Z,41.89
2023-02-08T02:36:43.715Z,42.06
2023-02-08T02:38:58.097Z,42.56
2023-02-08T02:41:07.830Z,41.30
2023-02-08T02:43:18.226Z,42.25
2023-02-08T02:45:26.557Z,41.69
2023-02-08T02:47:39.885Z,41.23
2023-02-08T02:49:52.251Z,40.67
2023-02-08T02:51:58.810Z,40.32
2023-02-08T02:54:06.657Z,40.49
2023-02-08T02:56:12.183Z,40.19
2023-02-08T02:58:21.636Z,39.97
2023-02-08T03:00:26.254Z,40.41
2023-02-08T03:02:29.169Z,40.24
2023-02-08T03:04:53.645Z,40.67
2023-02-08T03:07:05.661Z,41.04
2023-02-08T03:09:30.894Z,41.31
2023-02-08T03:11:35.148Z,41.03
2023-02-08T03:13:55.238Z,40.87
2023-02-08T03:16:07.570Z,40.16
2023-02-08T03:18:25.822Z,40.62
2023-02-08T03:20:31.868Z,40.30
2023-02-08T03:22:43.157Z,39.98
2023-02-08T03:24:53.863Z,40.10
2023-02-08T03:27:00.738Z,39.73
2023-02-08T03:29:08.376Z,39.55
2023-02-08T03:31:14.201Z,39.27
2023-02-08T03:33:21.015Z,38.46
2023-02-08T03:35:27.418Z,38.52
2023-02-08T03:37:33.645Z,39.26
2023-02-08T03:39:37.896Z,39.27
2023-02-08T03:41:44.617Z,39.29
2023-02-08T03:43:51.585Z,39.11
2023-02-08T03:45:59.584Z,38.90
2023-02-08T03:48:04.902Z,39.02
2023-02-08T03:50:11.529Z,39.17
2023-02-08T03:52:22.497Z,38.67
2023-02-08T03:54:27.968Z,38.65
2023-02-08T03:56:38.508Z,38.46
2023-02-08T03:58:46.328Z,38.57
2023-02-08T04:00:54.386Z,38.45
2023-02-08T04:03:00.482Z,38.81
2023-02-08T04:05:02.465Z,38.75
2023-02-08T04:07:06.037Z,38.99
2023-02-08T04:09:07.666Z,38.49
2023-02-08T04:11:09.196Z,39.09
2023-02-08T04:13:10.646Z,38.46
2023-02-08T04:15:12.193Z,38.17
2023-02-08T04:17:13.701Z,38.18
2023-02-08T04:19:15.166Z,37.74
2023-02-08T04:21:16.688Z,38.27
2023-02-08T04:23:19.523Z,38.24
2023-02-08T04:25:21.255Z,38.56
2023-02-08T04:27:22.774Z,38.89
2023-02-08T04:29:24.362Z,39.51
2023-02-08T04:31:25.975Z,39.58
2023-02-08T04:33:28.850Z,39.65
2023-02-08T04:35:30.411Z,39.60
2023-02-08T04:37:32.498Z,39.90
2023-02-08T04:39:35.341Z,40.34
2023-02-08T04:41:36.800Z,40.07
2023-02-08T04:43:38.274Z,40.27
2023-02-08T04:45:39.782Z,40.53
2023-02-08T04:47:41.270Z,39.57
2023-02-08T04:49:42.756Z,39.82
2023-02-08T04:51:44.532Z,39.81
2023-02-08T04:53:46.005Z,39.42
2023-02-08T04:55:48.847Z,39.66
2023-02-08T04:57:50.333Z,39.04
2023-02-08T04:59:51.804Z,38.94
2023-02-08T05:01:53.458Z,39.62
2023-02-08T05:03:55.034Z,39.27
2023-02-08T05:05:57.593Z,38.42
2023-02-08T05:08:04.265Z,38.91
2023-02-08T05:10:06.490Z,39.16
2023-02-08T05:12:09.334Z,39.14
2023-02-08T05:14:10.898Z,39.22
2023-02-08T05:16:12.507Z,38.73
2023-02-08T05:18:14.019Z,39.12
2023-02-08T05:20:15.572Z,39.24
2023-02-08T05:22:17.204Z,39.33
2023-02-08T05:24:18.650Z,39.18
2023-02-08T05:26:20.295Z,39.10
2023-02-08T05:28:23.359Z,39.12
2023-02-08T05:30:24.905Z,39.20
2023-02-08T05:32:26.559Z,38.80
2023-02-08T05:34:28.144Z,39.51
2023-02-08T05:36:29.960Z,39.46
2023-02-08T05:38:31.437Z,39.12
2023-02-08T05:40:33.488Z,39.13
2023-02-08T05:42:34.993Z,38.98
2023-02-08T05:44:38.120Z,38.93
2023-02-08T05:46:39.736Z,39.39
2023-02-08T05:48:41.353Z,39.33
2023-02-08T05:50:42.996Z,39.21
2023-02-08T05:52:44.503Z,39.21
2023-02-08T05:54:46.103Z,39.57
2023-02-08T05:56:47.619Z,38.70
2023-02-08T05:58:49.265Z,39.42
2023-02-08T06:00:52.206Z,39.17
2023-02-08T06:02:53.801Z,38.79
2023-02-08T06:04:55.381Z,38.83
2023-02-08T06:06:57.082Z,39.50
2023-02-08T06:08:58.587Z,40.37
2023-02-08T06:11:00.171Z,41.02
2023-02-08T06:13:02.095Z,40.61
2023-02-08T06:15:04.036Z,40.58
2023-02-08T06:17:06.901Z,40.31
2023-02-08T06:19:08.382Z,40.40
2023-02-08T06:21:09.897Z,40.05
2023-02-08T06:23:11.639Z,40.46
2023-02-08T06:25:13.134Z,40.64
2023-02-08T06:27:14.717Z,40.59
2023-02-08T06:29:16.228Z,41.09
2023-02-08T06:31:18.056Z,41.20
2023-02-08T06:33:20.970Z,41.77
2023-02-08T06:35:22.579Z,40.92
2023-02-08T06:37:24.184Z,40.94
2023-02-08T06:39:25.858Z,41.13
2023-02-08T06:41:27.340Z,41.43
2023-02-08T06:43:28.839Z,40.77
2023-02-08T06:45:30.380Z,40.94
2023-02-08T06:47:31.958Z,40.77
2023-02-08T06:49:35.008Z,41.21
2023-02-08T06:51:36.641Z,40.26
2023-02-08T06:53:38.199Z,40.44
2023-02-08T06:55:39.724Z,40.02
2023-02-08T06:57:41.182Z,40.57
2023-02-08T06:59:42.947Z,41.12
2023-02-08T07:01:44.438Z,40.65
2023-02-08T07:03:48.714Z,40.69
2023-02-08T07:06:04.164Z,40.72
2023-02-08T07:08:07.251Z,41.22
2023-02-08T07:10:08.979Z,41.40
2023-02-08T07:12:11.222Z,42.09
2023-02-08T07:14:13.970Z,41.81
2023-02-08T07:16:15.771Z,41.20
2023-02-08T07:18:17.333Z,41.07
2023-02-08T07:20:19.294Z,41.06
2023-02-08T07:22:22.153Z,41.32
2023-02-08T07:24:23.771Z,40.51
2023-02-08T07:26:25.192Z,41.07
2023-02-08T07:28:26.928Z,41.13
2023-02-08T07:30:28.471Z,41.37
2023-02-08T07:32:30.109Z,41.48
2023-02-08T07:34:33.495Z,40.80
2023-02-08T07:36:35.092Z,41.38
2023-02-08T07:38:38.484Z,41.34
2023-02-08T07:40:40.634Z,40.64
2023-02-08T07:42:42.301Z,40.73
2023-02-08T07:44:43.862Z,41.03
2023-02-08T07:46:45.625Z,40.75
2023-02-08T07:48:47.779Z,39.95
2023-02-08T07:50:49.302Z,40.33
2023-02-08T07:52:50.768Z,39.73
2023-02-08T07:54:53.981Z,40.17
2023-02-08T07:56:55.647Z,40.07
2023-02-08T07:58:57.169Z,39.72
2023-02-08T08:00:59.089Z,39.89
2023-02-08T08:03:08.387Z,38.53
2023-02-08T08:05:10.915Z,39.06
2023-02-08T08:07:12.448Z,38.71
2023-02-08T08:09:13.972Z,39.00
2023-02-08T08:11:18.413Z,38.69
2023-02-08T08:13:19.989Z,38.72
2023-02-08T08:15:21.444Z,38.40
2023-02-08T08:17:22.884Z,38.71
2023-02-08T08:19:24.611Z,38.50
2023-02-08T08:21:26.110Z,38.97
2023-02-08T08:23:27.624Z,38.44
2023-02-08T08:25:29.186Z,38.51
2023-02-08T08:27:32.173Z,38.05
2023-02-08T08:29:35.031Z,38.33
2023-02-08T08:31:36.558Z,38.64
2023-02-08T08:33:38.296Z,38.26
2023-02-08T08:35:40.354Z,38.41
2023-02-08T08:37:41.858Z,37.53
2023-02-08T08:39:43.395Z,37.63
2023-02-08T08:41:47.881Z,36.93
2023-02-08T08:43:51.175Z,37.57
2023-02-08T08:45:53.134Z,37.30
2023-02-08T08:47:54.807Z,37.99
2023-02-08T08:49:56.303Z,36.81
2023-02-08T08:51:58.021Z,36.95
2023-02-08T08:53:59.531Z,36.34
2023-02-08T08:56:01.157Z,35.66
2023-02-08T08:58:02.594Z,34.54
2023-02-08T09:00:06.360Z,34.56
2023-02-08T09:02:11.351Z,33.10
2023-02-08T09:04:13.155Z,32.12
2023-02-08T09:06:14.761Z,31.03
2023-02-08T09:08:16.397Z,31.23
2023-02-08T09:10:18.092Z,31.40
2023-02-08T09:12:19.557Z,31.10
2023-02-08T09:14:21.180Z,30.47
2023-02-08T09:16:24.489Z,30.65
2023-02-08T09:18:26.258Z,30.46
2023-02-08T09:20:27.925Z,29.14
2023-02-08T09:22:29.863Z,29.42
2023-02-08T09:24:31.351Z,29.26
2023-02-08T09:26:33.169Z,29.81
2023-02-08T09:28:34.979Z,29.00
2023-02-08T09:30:36.544Z,28.57
2023-02-08T09:32:40.029Z,28.18
2023-02-08T09:34:41.573Z,28.29
2023-02-08T09:36:43.094Z,28.52
2023-02-08T09:38:45.056Z,28.57
2023-02-08T09:40:57.190Z,27.52
2023-02-08T09:43:07.153Z,26.88
2023-02-08T09:45:25.862Z,27.41
2023-02-08T09:47:32.857Z,27.50
2023-02-08T09:49:40.771Z,27.83
2023-02-08T09:51:45.828Z,26.41
2023-02-08T09:53:52.975Z,27.04
2023-02-08T09:56:01.723Z,26.39
2023-02-08T09:58:10.572Z,26.47
2023-02-08T10:00:17.426Z,26.70
2023-02-08T10:02:25.182Z,27.10
2023-02-08T10:04:37.379Z,26.46
2023-02-08T10:06:40.861Z,27.15
2023-02-08T10:08:43.460Z,28.30
2023-02-08T10:10:53.125Z,26.67
2023-02-08T10:13:03.393Z,26.80
2023-02-08T10:15:18.075Z,26.07
2023-02-08T10:17:41.633Z,24.80
2023-02-08T10:19:56.151Z,24.78
2023-02-08T10:22:09.344Z,25.02
2023-02-08T10:24:29.797Z,26.14
2023-02-08T10:26:37.056Z,23.72
2023-02-08T10:28:54.415Z,25.04
2023-02-08T10:31:10.311Z,23.97
2023-02-08T10:33:18.694Z,24.16
2023-02-08T10:35:25.624Z,23.58
2023-02-08T10:37:31.426Z,24.40
2023-02-08T10:39:35.902Z,24.24
2023-02-08T10:41:37.624Z,25.01
2023-02-08T10:43:43.062Z,24.54
2023-02-08T10:45:51.820Z,24.37
2023-02-08T10:47:56.536Z,24.99
2023-02-08T10:50:01.406Z,25.11
2023-02-08T10:52:03.162Z,25.19
2023-02-08T10:54:06.037Z,24.06
2023-02-08T10:56:21.455Z,23.49
2023-02-08T10:58:25.072Z,22.32
2023-02-08T11:00:30.276Z,23.54
2023-02-08T11:02:33.781Z,22.70
2023-02-08T11:04:59.737Z,21.74
2023-02-08T11:07:19.292Z,21.58
2023-02-08T11:09:24.997Z,22.16
2023-02-08T11:11:27.260Z,21.42
2023-02-08T11:13:36.673Z,21.52
2023-02-08T11:15:43.734Z,20.65
2023-02-08T11:17:45.544Z,21.13
2023-02-08T11:19:49.958Z,21.21
2023-02-08T11:21:52.441Z,18.94
2023-02-08T11:23:55.270Z,19.15
2023-02-08T11:26:16.637Z,19.48
2023-02-08T11:28:27.672Z,20.01
2023-02-08T11:30:29.865Z,19.87
2023-02-08T11:32:31.406Z,20.41
2023-02-08T11:34:34.845Z,20.59
2023-02-08T11:36:38.345Z,18.89
2023-02-08T11:38:42.707Z,19.36
2023-02-08T11:40:45.719Z,17.07
2023-02-08T11:42:49.295Z,19.05
2023-02-08T11:44:52.443Z,18.16
2023-02-08T11:46:57.120Z,17.64
2023-02-08T11:48:58.632Z,16.93
2023-02-08T11:51:02.317Z,16.67
2023-02-08T11:53:05.764Z,18.76
2023-02-08T11:55:23.421Z,17.31
2023-02-08T11:57:26.792Z,18.27
2023-02-08T11:59:30.542Z,17.04
2023-02-08T12:01:34.205Z,16.75
2023-02-08T12:03:37.950Z,16.29
2023-02-08T12:05:54.986Z,16.29
2023-02-08T12:08:06.034Z,16.81
2023-02-08T12:10:33.091Z,16.89
2023-02-08T12:12:48.227Z,17.51
2023-02-08T12:15:01.885Z,17.87
2023-02-08T12:17:31.919Z,17.26
2023-02-08T12:20:02.069Z,18.73
2023-02-08T12:22:06.660Z,18.04
2023-02-08T12:24:17.652Z,18.58
2023-02-08T12:26:28.674Z,17.90
2023-02-08T12:28:43.185Z,17.73
2023-02-08T12:30:53.545Z,17.83
2023-02-08T12:33:19.340Z,17.30
2023-02-08T12:36:03.941Z,17.35
2023-02-08T12:38:14.014Z,17.58
2023-02-08T12:40:28.838Z,18.16
2023-02-08T12:42:41.542Z,17.97
2023-02-08T12:45:00.114Z,17.64
2023-02-08T12:47:17.656Z,18.54
2023-02-08T12:49:45.659Z,18.41
2023-02-08T12:51:54.715Z,18.51
2023-02-08T12:54:01.552Z,17.79
2023-02-08T12:56:07.830Z,18.16
2023-02-08T12:58:25.478Z,18.10
2023-02-08T13:00:31.453Z,18.71
2023-02-08T13:02:41.193Z,17.28
2023-02-08T13:04:46.351Z,17.50
2023-02-08T13:06:52.226Z,17.69
2023-02-08T13:09:00.799Z,17.46
2023-02-08T13:11:19.108Z,18.34
2023-02-08T13:13:25.590Z,18.45
2023-02-08T13:15:34.984Z,18.48
2023-02-08T13:17:49.839Z,17.54
2023-02-08T13:20:00.412Z,18.63
2023-02-08T13:22:05.528Z,18.69
2023-02-08T13:24:16.768Z,18.72
2023-02-08T13:26:22.506Z,19.72
2023-02-08T13:28:25.726Z,20.16
2023-02-08T13:30:27.793Z,19.51
2023-02-08T13:32:44.044Z,20.38
2023-02-08T13:34:51.799Z,20.22
2023-02-08T13:36:56.292Z,21.95
2023-02-08T13:38:59.387Z,21.84
2023-02-08T13:41:05.135Z,21.00
2023-02-08T13:43:34.343Z,20.83
2023-02-08T13:45:42.409Z,21.05
2023-02-08T13:47:47.888Z,21.09
2023-02-08T13:49:58.714Z,20.57
2023-02-08T13:52:00.199Z,21.01
2023-02-08T13:54:10.462Z,21.25
2023-02-08T13:56:12.959Z,21.78
2023-02-08T13:58:58.227Z,21.31
2023-02-08T14:01:16.122Z,21.61
2023-02-08T14:03:21.803Z,22.26
2023-02-08T14:05:44.985Z,21.86
2023-02-08T14:07:47.899Z,22.47
2023-02-08T14:10:05.829Z,22.13
2023-02-08T14:12:18.639Z,22.97
2023-02-08T14:14:23.435Z,21.30
2023-02-08T14:16:32.120Z,22.22
2023-02-08T14:18:33.840Z,21.52
2023-02-08T14:20:40.116Z,21.73
2023-02-08T14:22:50.498Z,21.44
2023-02-08T14:25:01.234Z,21.19
2023-02-08T14:27:09.595Z,22.08
2023-02-08T14:29:21.969Z,21.71
2023-02-08T14:31:36.801Z,21.44
2023-02-08T14:33:41.218Z,22.25
2023-02-08T14:35:52.802Z,21.82
2023-02-08T14:38:26.976Z,21.10
2023-02-08T14:40:33.988Z,21.91
2023-02-08T14:42:54.772Z,21.82
2023-02-08T14:45:01.295Z,23.13
2023-02-08T14:47:02.969Z,22.17
2023-02-08T14:49:10.025Z,21.87
2023-02-08T14:51:24.066Z,21.49
2023-02-08T14:53:35.835Z,21.70
2023-02-08T14:55:45.670Z,21.90
2023-02-08T14:57:47.910Z,22.20
2023-02-08T14:59:50.522Z,22.61
2023-02-08T15:01:55.650Z,22.52
2023-02-08T15:04:01.825Z,22.85
2023-02-08T15:06:20.720Z,22.79
2023-02-08T15:08:22.295Z,23.00
2023-02-08T15:10:26.566Z,23.56
2023-02-08T15:12:30.228Z,23.96
2023-02-08T15:14:35.520Z,23.95
2023-02-08T15:16:42.219Z,22.30
2023-02-08T15:18:47.332Z,22.54
2023-02-08T15:20:59.757Z,23.13
2023-02-08T15:23:05.204Z,23.36
2023-02-08T15:25:24.234Z,23.67
2023-02-08T15:27:29.387Z,23.47
2023-02-08T15:29:43.888Z,23.04
2023-02-08T15:31:46.671Z,22.41
2023-02-08T15:33:48.602Z,22.96
2023-02-08T15:35:57.612Z,23.18
2023-02-08T15:37:59.130Z,23.26
2023-02-08T15:40:02.566Z,22.94
2023-02-08T15:42:04.829Z,23.58
2023-02-08T15:44:16.880Z,23.12
2023-02-08T15:46:22.183Z,23.07
2023-02-08T15:48:24.726Z,23.50
2023-02-08T15:50:28.671Z,23.88
2023-02-08T15:52:34.804Z,23.88
2023-02-08T15:54:36.437Z,23.26
2023-02-08T15:56:42.291Z,24.30
2023-02-08T15:58:48.147Z,24.14
2023-02-08T16:00:49.822Z,24.48
2023-02-08T16:02:54.098Z,24.72
2023-02-08T16:04:56.775Z,24.28
2023-02-08T16:06:58.441Z,25.15
2023-02-08T16:09:02.349Z,24.87
2023-02-08T16:11:09.485Z,24.99
2023-02-08T16:13:20.166Z,24.80
2023-02-08T16:15:36.040Z,25.05
2023-02-08T16:17:44.629Z,25.32
2023-02-08T16:19:51.161Z,25.23
2023-02-08T16:21:53.880Z,25.51
2023-02-08T16:23:58.348Z,25.78
2023-02-08T16:26:13.193Z,25.83
2023-02-08T16:28:26.551Z,26.31
2023-02-08T16:30:28.380Z,26.73
2023-02-08T16:32:33.247Z,26.38
2023-02-08T16:34:36.734Z,26.72
2023-02-08T16:36:41.355Z,26.93
2023-02-08T16:39:05.040Z,26.97
2023-02-08T16:41:11.126Z,26.96
2023-02-08T16:43:17.735Z,27.18
2023-02-08T16:45:21.323Z,26.96
2023-02-08T16:47:27.630Z,27.23
2023-02-08T16:49:29.150Z,27.00
2023-02-08T16:51:32.974Z,27.05
2023-02-08T16:53:42.012Z,27.28
2023-02-08T16:55:44.115Z,27.10
2023-02-08T16:57:47.444Z,27.42
2023-02-08T16:59:49.092Z,27.32
2023-02-08T17:01:58.251Z,27.57
2023-02-08T17:04:02.771Z,27.29
2023-02-08T17:06:04.939Z,27.67
2023-02-08T17:08:08.720Z,27.53
2023-02-08T17:10:23.716Z,28.70
2023-02-08T17:12:25.293Z,28.39
2023-02-08T17:14:26.867Z,28.53
2023-02-08T17:16:30.265Z,28.45
2023-02-08T17:18:34.907Z,28.22
2023-02-08T17:20:47.089Z,28.56
2023-02-08T17:22:49.021Z,28.27
2023-02-08T17:24:50.713Z,28.66
2023-02-08T17:26:52.341Z,29.02
2023-02-08T17:28:54.367Z,29.57
2023-02-08T17:30:56.022Z,29.74
2023-02-08T17:32:57.654Z,29.75
2023-02-08T17:35:00.585Z,30.01
2023-02-08T17:37:02.212Z,29.73
2023-02-08T17:39:05.148Z,29.85
2023-02-08T17:41:08.310Z,29.99
2023-02-08T17:43:11.571Z,30.07
2023-02-08T17:45:13.041Z,29.66
2023-02-08T17:47:14.553Z,29.90
2023-02-08T17:49:16.082Z,29.40
2023-02-08T17:51:20.517Z,29.95
2023-02-08T17:53:22.140Z,30.59
2023-02-08T17:55:23.681Z,30.34
2023-02-08T17:57:25.338Z,30.97
2023-02-08T17:59:28.952Z,31.11
2023-02-08T18:01:31.574Z,30.36
2023-02-08T18:03:33.302Z,31.07
2023-02-08T18:05:35.170Z,31.60
2023-02-08T18:07:38.088Z,31.05
2023-02-08T18:09:39.619Z,30.98
2023-02-08T18:11:41.259Z,31.48
2023-02-08T18:13:43.420Z,31.39
2023-02-08T18:15:46.327Z,31.21
2023-02-08T18:17:48.904Z,31.05
2023-02-08T18:19:50.437Z,31.53
2023-02-08T18:21:51.979Z,31.33
2023-02-08T18:23:55.015Z,32.62
2023-02-08T18:26:04.824Z,32.09
2023-02-08T18:28:06.363Z,31.77
2023-02-08T18:30:09.765Z,31.84
2023-02-08T18:32:11.335Z,31.69
2023-02-08T18:34:12.914Z,31.74
2023-02-08T18:36:14.806Z,31.94
2023-02-08T18:38:16.328Z,32.62
2023-02-08T18:40:19.330Z,33.17
2023-02-08T18:42:20.830Z,32.46
2023-02-08T18:44:22.426Z,32.01
2023-02-08T18:46:26.531Z,32.40
2023-02-08T18:48:28.504Z,32.06
2023-02-08T18:50:30.354Z,31.59
2023-02-08T18:52:32.509Z,32.26
2023-02-08T18:54:34.102Z,32.02
2023-02-08T18:56:37.023Z,31.91
2023-02-08T18:58:41.440Z,32.50
2023-02-08T19:00:42.971Z,32.28
2023-02-08T19:02:44.563Z,32.21
2023-02-08T19:04:46.630Z,32.57
2023-02-08T19:06:48.213Z,32.72
2023-02-08T19:08:50.700Z,32.74
2023-02-08T19:10:52.164Z,33.36
2023-02-08T19:12:55.016Z,33.18
2023-02-08T19:14:56.629Z,33.22
2023-02-08T19:16:58.573Z,33.19
2023-02-08T19:19:00.093Z,34.01
2023-02-08T19:21:04.058Z,33.93
2023-02-08T19:23:06.060Z,35.46
2023-02-08T19:25:08.128Z,34.98
2023-02-08T19:27:09.707Z,34.35
2023-02-08T19:29:14.599Z,35.31
2023-02-08T19:31:18.680Z,35.40
2023-02-08T19:33:20.252Z,36.05
2023-02-08T19:35:21.769Z,35.77
2023-02-08T19:37:23.278Z,36.39
2023-02-08T19:39:26.869Z,36.52
2023-02-08T19:41:30.550Z,36.11
2023-02-08T19:43:32.708Z,36.51
2023-02-08T19:45:36.148Z,36.26
2023-02-08T19:47:50.741Z,36.99
2023-02-08T19:49:53.152Z,36.61
2023-02-08T19:51:55.449Z,36.35
2023-02-08T19:53:57.454Z,34.18
2023-02-08T19:56:01.237Z,33.49
2023-02-08T19:58:02.804Z,33.66
2023-02-08T20:00:11.296Z,33.91
2023-02-08T20:02:20.731Z,33.39
2023-02-08T20:04:22.998Z,33.37
2023-02-08T20:06:27.084Z,32.57
2023-02-08T20:08:28.972Z,32.13
2023-02-08T20:10:33.176Z,32.56
2023-02-08T20:12:34.696Z,32.37
2023-02-08T20:14:36.266Z,31.96
2023-02-08T20:16:37.860Z,32.09
2023-02-08T20:18:41.219Z,32.32
2023-02-08T20:20:43.246Z,32.35
2023-02-08T20:22:44.774Z,31.91
2023-02-08T20:24:46.414Z,31.82
2023-02-08T20:26:48.718Z,31.73
2023-02-08T20:28:52.070Z,31.88
2023-02-08T20:30:53.578Z,32.10
2023-02-08T20:32:55.181Z,32.15
2023-02-08T20:34:59.750Z,31.59
2023-02-08T20:37:07.826Z,31.94
2023-02-08T20:39:13.599Z,31.89
2023-02-08T20:41:16.578Z,31.94
2023-02-08T20:43:18.268Z,32.11
2023-02-08T20:45:19.812Z,31.85
2023-02-08T20:47:21.370Z,31.87
2023-02-08T20:49:22.939Z,32.08
2023-02-08T20:51:26.773Z,32.16
2023-02-08T20:53:28.253Z,32.54
2023-02-08T20:55:29.757Z,32.17
2023-02-08T20:57:31.230Z,32.20
2023-02-08T20:59:32.788Z,32.16
2023-02-08T21:01:36.112Z,32.71
2023-02-08T21:03:37.806Z,32.55
2023-02-08T21:05:39.338Z,32.59
2023-02-08T21:07:42.171Z,32.79
2023-02-08T21:09:43.886Z,32.98
2023-02-08T21:11:46.069Z,32.85
2023-02-08T21:13:48.302Z,33.16
2023-02-08T21:15:49.909Z,33.33
2023-02-08T21:17:51.486Z,33.25
2023-02-08T21:19:55.048Z,33.15
2023-02-08T21:22:00.919Z,33.61
2023-02-08T21:24:04.247Z,33.47
2023-02-08T21:26:08.139Z,33.28
2023-02-08T21:28:10.030Z,33.37
2023-02-08T21:30:12.103Z,33.62
2023-02-08T21:32:13.852Z,33.94
2023-02-08T21:34:15.491Z,34.21
2023-02-08T21:36:18.953Z,34.18
2023-02-08T21:38:20.704Z,34.46
2023-02-08T21:40:23.668Z,34.20
2023-02-08T21:42:25.262Z,34.45
2023-02-08T21:44:26.880Z,34.48
2023-02-08T21:46:28.567Z,34.56
2023-02-08T21:48:30.120Z,34.51
2023-02-08T21:50:31.746Z,34.50
2023-02-08T21:52:33.339Z,34.59
2023-02-08T21:54:35.814Z,34.39
2023-02-08T21:56:38.807Z,34.30
2023-02-08T21:58:40.428Z,34.35
2023-02-08T22:00:42.188Z,34.39
2023-02-08T22:02:44.005Z,34.58
2023-02-08T22:04:45.542Z,34.05
2023-02-08T22:06:47.147Z,34.75
2023-02-08T22:08:48.691Z,34.30
2023-02-08T22:10:58.366Z,35.08
2023-02-08T22:13:01.636Z,35.44
2023-02-08T22:15:03.585Z,35.34
2023-02-08T22:17:05.144Z,36.15
2023-02-08T22:19:07.527Z,35.97
2023-02-08T22:21:09.018Z,36.06
2023-02-08T22:23:10.551Z,35.90
2023-02-08T22:25:12.468Z,36.18
2023-02-08T22:27:16.134Z,36.30
2023-02-08T22:29:19.040Z,36.25
2023-02-08T22:31:20.801Z,36.00
2023-02-08T22:33:22.452Z,36.35
2023-02-08T22:35:24.039Z,36.17
2023-02-08T22:37:25.769Z,35.74
2023-02-08T22:39:27.289Z,36.19
2023-02-08T22:41:28.846Z,36.63
2023-02-08T22:43:30.432Z,35.92
2023-02-08T22:45:33.345Z,36.74
2023-02-08T22:47:35.656Z,36.19
2023-02-08T22:49:37.519Z,36.29
2023-02-08T22:51:39.083Z,36.26
2023-02-08T22:53:40.813Z,36.76
2023-02-08T22:55:48.432Z,35.72
2023-02-08T22:57:50.069Z,36.73
2023-02-08T22:59:51.611Z,36.92
2023-02-08T23:01:54.550Z,36.85
2023-02-08T23:03:56.227Z,36.53
2023-02-08T23:05:57.749Z,36.76
2023-02-08T23:07:59.260Z,37.07
2023-02-08T23:10:00.789Z,36.25
2023-02-08T23:12:05.417Z,36.75
2023-02-08T23:14:06.950Z,35.91
2023-02-08T23:16:12.148Z,35.61
2023-02-08T23:18:15.090Z,35.79
2023-02-08T23:20:16.974Z,35.34
2023-02-08T23:22:18.553Z,35.61
2023-02-08T23:24:20.148Z,35.37
2023-02-08T23:26:22.140Z,34.96
2023-02-08T23:28:23.705Z,35.50
2023-02-08T23:30:25.271Z,35.79
2023-02-08T23:32:26.835Z,36.02
2023-02-08T23:34:30.041Z,36.65
2023-02-08T23:36:31.574Z,36.72
2023-02-08T23:38:33.336Z,36.82
2023-02-08T23:40:35.111Z,36.64
2023-02-08T23:42:36.923Z,37.03
2023-02-08T23:44:38.627Z,37.45
2023-02-08T23:46:40.211Z,37.28
2023-02-08T23:48:50.698Z,37.69
2023-02-08T23:51:01.257Z,37.11
2023-02-08T23:53:02.817Z,36.95
2023-02-08T23:55:05.923Z,36.77
2023-02-08T23:57:07.489Z,37.17
2023-02-08T23:59:10.523Z,37.10
